JQ8 weather

CLOSED Maryfield Airport
Maryfield, Saskatchewan, Canada

Public forecast

Using degrees Celsius for public forecast. Weather courtesy of forecast.io.

Closest aviation weather report (METAR) to Maryfield Airport

Closest report is Brandon Municipal Airport, 60.7 nm (112.5 km) E. Retrieved 2020/01/21 19:00 UTC (35 minutes ago):

CYBR 211900Z 26013KT 15SM SCT160 BKN210 M05/M10 A2960 RMK AC4CI2 SLP058

Closest aviation forecast (TAF) to Maryfield Airport

Closest forecast is Brandon Municipal Airport, 60.7 nm (112.5 km) E. Retrieved 2020/01/21 18:45 UTC (50 minutes ago):

TAF TAF CYBR 211744Z 2118/2206 26008KT P6SM SCT160 BKN240 RMK NXT FCST BY 220000Z